sensor_id;sensor_type;location;lat;lon;timestamp;temperature;humidity
23207;DHT22;11773;52.570;13.052;2024-01-25T00:00:23;9.00;99.90
23207;DHT22;11773;52.570;13.052;2024-01-25T00:02:53;9.00;99.90
23207;DHT22;11773;52.570;13.052;2024-01-25T00:05:22;9.00;99.90
23207;DHT22;11773;52.570;13.052;2024-01-25T00:07:53;9.10;99.90
23207;DHT22;11773;52.570;13.052;2024-01-25T00:10:22;9.00;99.90
23207;DHT22;11773;52.570;13.052;2024-01-25T00:12:52;9.10;99.90
23207;DHT22;11773;52.570;13.052;2024-01-25T00:15:22;9.10;99.90
23207;DHT22;11773;52.570;13.052;2024-01-25T00:17:52;9.10;99.90
23207;DHT22;11773;52.570;13.052;2024-01-25T00:20:22;9.10;99.90
23207;DHT22;11773;52.570;13.052;2024-01-25T00:22:52;9.10;99.90
23207;DHT22;11773;52.570;13.052;2024-01-25T00:25:21;9.00;99.90
23207;DHT22;11773;52.570;13.052;2024-01-25T00:27:51;9.10;99.90
23207;DHT22;11773;52.570;13.052;2024-01-25T00:30:21;9.10;99.90
23207;DHT22;11773;52.570;13.052;2024-01-25T00:32:51;9.10;99.90
23207;DHT22;11773;52.570;13.052;2024-01-25T00:35:21;9.10;99.90
23207;DHT22;11773;52.570;13.052;2024-01-25T00:37:51;9.10;99.90
23207;DHT22;11773;52.570;13.052;2024-01-25T00:40:21;9.10;99.90
23207;DHT22;11773;52.570;13.052;2024-01-25T00:42:52;9.10;99.90
23207;DHT22;11773;52.570;13.052;2024-01-25T00:45:23;9.10;99.90
23207;DHT22;11773;52.570;13.052;2024-01-25T00:47:53;9.00;99.90
23207;DHT22;11773;52.570;13.052;2024-01-25T00:50:23;9.00;99.90
23207;DHT22;11773;52.570;13.052;2024-01-25T00:52:54;9.00;99.90
23207;DHT22;11773;52.570;13.052;2024-01-25T00:55:24;9.10;99.90
23207;DHT22;11773;52.570;13.052;2024-01-25T00:57:54;9.10;99.90
23207;DHT22;11773;52.570;13.052;2024-01-25T01:00:24;9.10;99.90
23207;DHT22;11773;52.570;13.052;2024-01-25T01:02:54;9.20;99.90
23207;DHT22;11773;52.570;13.052;2024-01-25T01:05:27;9.10;99.90
23207;DHT22;11773;52.570;13.052;2024-01-25T01:07:57;9.10;99.90
23207;DHT22;11773;52.570;13.052;2024-01-25T01:10:27;9.10;99.90
23207;DHT22;11773;52.570;13.052;2024-01-25T01:12:57;9.10;99.90
23207;DHT22;11773;52.570;13.052;2024-01-25T01:15:26;9.10;99.90
23207;DHT22;11773;52.570;13.052;2024-01-25T01:17:56;9.10;99.90
23207;DHT22;11773;52.570;13.052;2024-01-25T01:20:26;9.10;99.90
23207;DHT22;11773;52.570;13.052;2024-01-25T01:22:56;9.20;99.90
23207;DHT22;11773;52.570;13.052;2024-01-25T01:25:25;9.20;99.90
23207;DHT22;11773;52.570;13.052;2024-01-25T01:27:55;9.10;99.90
23207;DHT22;11773;52.570;13.052;2024-01-25T01:30:24;9.10;99.90
23207;DHT22;11773;52.570;13.052;2024-01-25T01:32:54;9.10;99.90
23207;DHT22;11773;52.570;13.052;2024-01-25T01:35:24;9.10;99.90
23207;DHT22;11773;52.570;13.052;2024-01-25T01:37:54;9.20;99.90
23207;DHT22;11773;52.570;13.052;2024-01-25T01:40:24;9.10;99.90
23207;DHT22;11773;52.570;13.052;2024-01-25T01:43:01;9.10;99.90
23207;DHT22;11773;52.570;13.052;2024-01-25T01:45:31;9.10;99.90
23207;DHT22;11773;52.570;13.052;2024-01-25T01:48:00;9.20;99.90
23207;DHT22;11773;52.570;13.052;2024-01-25T01:50:30;9.10;99.90
23207;DHT22;11773;52.570;13.052;2024-01-25T01:53:00;9.10;99.90
23207;DHT22;11773;52.570;13.052;2024-01-25T01:55:32;9.10;99.90
23207;DHT22;11773;52.570;13.052;2024-01-25T01:58:02;9.10;99.90
23207;DHT22;11773;52.570;13.052;2024-01-25T02:00:32;9.10;99.90
23207;DHT22;11773;52.570;13.052;2024-01-25T02:03:03;9.00;99.90
23207;DHT22;11773;52.570;13.052;2024-01-25T02:05:33;9.00;99.90
23207;DHT22;11773;52.570;13.052;2024-01-25T02:08:03;8.90;99.90
23207;DHT22;11773;52.570;13.052;2024-01-25T02:10:34;9.00;99.90
23207;DHT22;11773;52.570;13.052;2024-01-25T02:13:04;9.00;99.90
23207;DHT22;11773;52.570;13.052;2024-01-25T02:15:34;9.00;99.90
23207;DHT22;11773;52.570;13.052;2024-01-25T02:18:04;9.00;99.90
23207;DHT22;11773;52.570;13.052;2024-01-25T02:20:34;9.00;99.90
23207;DHT22;11773;52.570;13.052;2024-01-25T02:23:03;9.00;99.90
23207;DHT22;11773;52.570;13.052;2024-01-25T02:25:33;9.00;99.90
23207;DHT22;11773;52.570;13.052;2024-01-25T02:28:03;8.90;99.90
23207;DHT22;11773;52.570;13.052;2024-01-25T02:30:32;9.00;99.90
23207;DHT22;11773;52.570;13.052;2024-01-25T02:33:02;9.00;99.90
23207;DHT22;11773;52.570;13.052;2024-01-25T02:35:32;9.00;99.90
23207;DHT22;11773;52.570;13.052;2024-01-25T02:38:01;9.00;99.90
23207;DHT22;11773;52.570;13.052;2024-01-25T02:40:31;9.00;99.90
23207;DHT22;11773;52.570;13.052;2024-01-25T02:43:00;9.00;99.90
23207;DHT22;11773;52.570;13.052;2024-01-25T02:45:30;9.00;99.90
23207;DHT22;11773;52.570;13.052;2024-01-25T02:48:00;9.00;99.90
23207;DHT22;11773;52.570;13.052;2024-01-25T02:50:31;9.00;99.90
23207;DHT22;11773;52.570;13.052;2024-01-25T02:53:01;8.90;99.90
23207;DHT22;11773;52.570;13.052;2024-01-25T02:55:31;8.90;99.90
23207;DHT22;11773;52.570;13.052;2024-01-25T02:58:00;9.00;99.90
23207;DHT22;11773;52.570;13.052;2024-01-25T03:00:30;9.00;99.90
23207;DHT22;11773;52.570;13.052;2024-01-25T03:03:00;8.90;99.90
23207;DHT22;11773;52.570;13.052;2024-01-25T03:05:29;8.80;99.90
23207;DHT22;11773;52.570;13.052;2024-01-25T03:07:59;8.90;99.90
23207;DHT22;11773;52.570;13.052;2024-01-25T03:10:29;8.90;99.90
23207;DHT22;11773;52.570;13.052;2024-01-25T03:12:59;8.90;99.90
23207;DHT22;11773;52.570;13.052;2024-01-25T03:15:28;9.00;99.90
23207;DHT22;11773;52.570;13.052;2024-01-25T03:17:58;8.90;99.90
23207;DHT22;11773;52.570;13.052;2024-01-25T03:20:27;8.90;99.90
23207;DHT22;11773;52.570;13.052;2024-01-25T03:22:57;8.90;99.90
23207;DHT22;11773;52.570;13.052;2024-01-25T03:25:27;8.90;99.90
23207;DHT22;11773;52.570;13.052;2024-01-25T03:27:57;8.90;99.90
23207;DHT22;11773;52.570;13.052;2024-01-25T03:30:28;8.80;99.90
23207;DHT22;11773;52.570;13.052;2024-01-25T03:32:58;8.80;99.90
23207;DHT22;11773;52.570;13.052;2024-01-25T03:35:27;8.80;99.90
23207;DHT22;11773;52.570;13.052;2024-01-25T03:37:57;8.80;99.90
23207;DHT22;11773;52.570;13.052;2024-01-25T03:40:27;8.80;99.90
23207;DHT22;11773;52.570;13.052;2024-01-25T03:42:57;8.70;99.90
23207;DHT22;11773;52.570;13.052;2024-01-25T03:45:28;8.80;99.90
23207;DHT22;11773;52.570;13.052;2024-01-25T03:48:00;8.90;99.90
23207;DHT22;11773;52.570;13.052;2024-01-25T03:50:29;8.80;99.90
23207;DHT22;11773;52.570;13.052;2024-01-25T03:52:59;8.80;99.90
23207;DHT22;11773;52.570;13.052;2024-01-25T03:55:29;8.80;99.90
23207;DHT22;11773;52.570;13.052;2024-01-25T03:57:58;8.70;99.90
23207;DHT22;11773;52.570;13.052;2024-01-25T04:00:28;8.70;99.90
23207;DHT22;11773;52.570;13.052;2024-01-25T04:02:59;8.60;99.90
23207;DHT22;11773;52.570;13.052;2024-01-25T04:05:29;8.70;99.90
23207;DHT22;11773;52.570;13.052;2024-01-25T04:07:58;8.60;99.90
23207;DHT22;11773;52.570;13.052;2024-01-25T04:10:28;8.70;99.90
23207;DHT22;11773;52.570;13.052;2024-01-25T04:12:58;8.70;99.90
23207;DHT22;11773;52.570;13.052;2024-01-25T04:15:32;8.70;99.90
23207;DHT22;11773;52.570;13.052;2024-01-25T04:18:02;8.70;99.90
23207;DHT22;11773;52.570;13.052;2024-01-25T04:20:32;8.70;99.90
23207;DHT22;11773;52.570;13.052;2024-01-25T04:23:02;8.70;99.90
23207;DHT22;11773;52.570;13.052;2024-01-25T04:25:32;8.60;99.90
23207;DHT22;11773;52.570;13.052;2024-01-25T04:28:02;8.70;99.90
23207;DHT22;11773;52.570;13.052;2024-01-25T04:30:31;8.70;99.90
23207;DHT22;11773;52.570;13.052;2024-01-25T04:33:02;8.70;99.90
23207;DHT22;11773;52.570;13.052;2024-01-25T04:35:32;8.70;99.90
23207;DHT22;11773;52.570;13.052;2024-01-25T04:38:02;8.70;99.90
23207;DHT22;11773;52.570;13.052;2024-01-25T04:40:32;8.60;99.90
23207;DHT22;11773;52.570;13.052;2024-01-25T04:43:02;8.60;99.90
23207;DHT22;11773;52.570;13.052;2024-01-25T04:45:31;8.70;99.90
23207;DHT22;11773;52.570;13.052;2024-01-25T04:48:01;8.60;99.90
23207;DHT22;11773;52.570;13.052;2024-01-25T04:50:31;8.60;99.90
23207;DHT22;11773;52.570;13.052;2024-01-25T04:53:04;8.70;99.90
23207;DHT22;11773;52.570;13.052;2024-01-25T04:55:33;8.70;99.90
23207;DHT22;11773;52.570;13.052;2024-01-25T04:58:03;8.60;99.90
23207;DHT22;11773;52.570;13.052;2024-01-25T05:00:32;8.60;99.90
23207;DHT22;11773;52.570;13.052;2024-01-25T05:03:03;8.60;99.90
23207;DHT22;11773;52.570;13.052;2024-01-25T05:05:33;8.70;99.90
23207;DHT22;11773;52.570;13.052;2024-01-25T05:08:03;8.60;99.90
23207;DHT22;11773;52.570;13.052;2024-01-25T05:10:33;8.70;99.90
23207;DHT22;11773;52.570;13.052;2024-01-25T05:13:02;8.60;99.90
23207;DHT22;11773;52.570;13.052;2024-01-25T05:15:32;8.60;99.90
23207;DHT22;11773;52.570;13.052;2024-01-25T05:18:02;8.60;99.90
23207;DHT22;11773;52.570;13.052;2024-01-25T05:20:33;8.60;99.90
23207;DHT22;11773;52.570;13.052;2024-01-25T05:23:05;8.60;99.90
23207;DHT22;11773;52.570;13.052;2024-01-25T05:25:34;8.60;99.90
23207;DHT22;11773;52.570;13.052;2024-01-25T05:28:04;8.50;99.90
23207;DHT22;11773;52.570;13.052;2024-01-25T05:30:34;8.60;99.90
23207;DHT22;11773;52.570;13.052;2024-01-25T05:33:04;8.60;99.90
23207;DHT22;11773;52.570;13.052;2024-01-25T05:35:34;8.60;99.90
23207;DHT22;11773;52.570;13.052;2024-01-25T05:38:03;8.70;99.90
23207;DHT22;11773;52.570;13.052;2024-01-25T05:40:34;8.70;99.90
23207;DHT22;11773;52.570;13.052;2024-01-25T05:43:04;8.70;99.90
23207;DHT22;11773;52.570;13.052;2024-01-25T05:45:33;8.70;99.90
23207;DHT22;11773;52.570;13.052;2024-01-25T05:48:03;8.70;99.90
23207;DHT22;11773;52.570;13.052;2024-01-25T05:50:33;8.70;99.90
23207;DHT22;11773;52.570;13.052;2024-01-25T05:53:03;8.60;99.90
23207;DHT22;11773;52.570;13.052;2024-01-25T05:55:32;8.70;99.90
23207;DHT22;11773;52.570;13.052;2024-01-25T05:58:02;8.60;99.90
23207;DHT22;11773;52.570;13.052;2024-01-25T06:00:32;8.70;99.90
23207;DHT22;11773;52.570;13.052;2024-01-25T06:03:01;8.60;99.90
23207;DHT22;11773;52.570;13.052;2024-01-25T06:05:31;8.70;99.90
23207;DHT22;11773;52.570;13.052;2024-01-25T06:08:01;8.80;99.90
23207;DHT22;11773;52.570;13.052;2024-01-25T06:10:31;8.70;99.90
23207;DHT22;11773;52.570;13.052;2024-01-25T06:13:01;8.70;99.90
23207;DHT22;11773;52.570;13.052;2024-01-25T06:15:30;8.60;99.90
23207;DHT22;11773;52.570;13.052;2024-01-25T06:18:00;8.60;99.90
23207;DHT22;11773;52.570;13.052;2024-01-25T06:20:31;8.60;99.90
23207;DHT22;11773;52.570;13.052;2024-01-25T06:23:01;8.60;99.90
23207;DHT22;11773;52.570;13.052;2024-01-25T06:25:30;8.60;99.90
23207;DHT22;11773;52.570;13.052;2024-01-25T06:28:00;8.50;99.90
23207;DHT22;11773;52.570;13.052;2024-01-25T06:30:31;8.60;99.90
23207;DHT22;11773;52.570;13.052;2024-01-25T06:33:01;8.60;99.90
23207;DHT22;11773;52.570;13.052;2024-01-25T06:35:31;8.60;99.90
23207;DHT22;11773;52.570;13.052;2024-01-25T06:38:00;8.60;99.90
23207;DHT22;11773;52.570;13.052;2024-01-25T06:40:30;8.70;99.90
23207;DHT22;11773;52.570;13.052;2024-01-25T06:42:59;8.70;99.90
23207;DHT22;11773;52.570;13.052;2024-01-25T06:45:30;8.60;99.90
23207;DHT22;11773;52.570;13.052;2024-01-25T06:47:59;8.60;99.90
23207;DHT22;11773;52.570;13.052;2024-01-25T06:50:29;8.60;99.90
23207;DHT22;11773;52.570;13.052;2024-01-25T06:52:59;8.60;99.90
23207;DHT22;11773;52.570;13.052;2024-01-25T06:55:29;8.60;99.90
23207;DHT22;11773;52.570;13.052;2024-01-25T06:57:58;8.60;99.90
23207;DHT22;11773;52.570;13.052;2024-01-25T07:00:28;8.60;99.90
23207;DHT22;11773;52.570;13.052;2024-01-25T07:02:58;8.60;99.90
23207;DHT22;11773;52.570;13.052;2024-01-25T07:05:28;8.70;99.90
23207;DHT22;11773;52.570;13.052;2024-01-25T07:08:00;8.60;99.90
23207;DHT22;11773;52.570;13.052;2024-01-25T07:10:30;8.60;99.90
23207;DHT22;11773;52.570;13.052;2024-01-25T07:13:00;8.60;99.90
23207;DHT22;11773;52.570;13.052;2024-01-25T07:15:30;8.60;99.90
23207;DHT22;11773;52.570;13.052;2024-01-25T07:18:00;8.60;99.90
23207;DHT22;11773;52.570;13.052;2024-01-25T07:20:31;8.60;99.90
23207;DHT22;11773;52.570;13.052;2024-01-25T07:23:01;8.60;99.90
23207;DHT22;11773;52.570;13.052;2024-01-25T07:25:30;8.50;99.90
23207;DHT22;11773;52.570;13.052;2024-01-25T07:28:00;8.60;99.90
23207;DHT22;11773;52.570;13.052;2024-01-25T07:30:30;8.60;99.90
23207;DHT22;11773;52.570;13.052;2024-01-25T07:32:59;8.60;99.90
23207;DHT22;11773;52.570;13.052;2024-01-25T07:35:29;8.50;99.90
23207;DHT22;11773;52.570;13.052;2024-01-25T07:37:59;8.50;99.90
23207;DHT22;11773;52.570;13.052;2024-01-25T07:40:28;8.60;99.90
23207;DHT22;11773;52.570;13.052;2024-01-25T07:42:58;8.70;99.90
23207;DHT22;11773;52.570;13.052;2024-01-25T07:45:28;8.70;99.90
23207;DHT22;11773;52.570;13.052;2024-01-25T07:47:58;8.70;99.90
23207;DHT22;11773;52.570;13.052;2024-01-25T07:50:29;8.70;99.90
23207;DHT22;11773;52.570;13.052;2024-01-25T07:52:59;8.50;99.90
23207;DHT22;11773;52.570;13.052;2024-01-25T07:55:30;8.60;99.90
23207;DHT22;11773;52.570;13.052;2024-01-25T07:57:59;8.60;99.90
23207;DHT22;11773;52.570;13.052;2024-01-25T08:00:29;8.60;99.90
23207;DHT22;11773;52.570;13.052;2024-01-25T08:02:59;8.60;99.90
23207;DHT22;11773;52.570;13.052;2024-01-25T08:05:28;8.70;99.90
23207;DHT22;11773;52.570;13.052;2024-01-25T08:08:00;8.60;99.90
23207;DHT22;11773;52.570;13.052;2024-01-25T08:10:29;8.60;99.90
23207;DHT22;11773;52.570;13.052;2024-01-25T08:12:59;8.60;99.90
23207;DHT22;11773;52.570;13.052;2024-01-25T08:17:56;8.60;99.90
23207;DHT22;11773;52.570;13.052;2024-01-25T08:20:26;8.60;99.90
23207;DHT22;11773;52.570;13.052;2024-01-25T08:22:56;8.70;99.90
23207;DHT22;11773;52.570;13.052;2024-01-25T08:25:26;8.60;99.90
23207;DHT22;11773;52.570;13.052;2024-01-25T08:27:56;8.60;99.90
23207;DHT22;11773;52.570;13.052;2024-01-25T08:30:26;8.70;99.90
23207;DHT22;11773;52.570;13.052;2024-01-25T08:32:56;8.60;99.90
23207;DHT22;11773;52.570;13.052;2024-01-25T08:35:25;8.70;99.90
23207;DHT22;11773;52.570;13.052;2024-01-25T08:37:55;8.70;99.90
23207;DHT22;11773;52.570;13.052;2024-01-25T08:40:25;8.70;99.90
23207;DHT22;11773;52.570;13.052;2024-01-25T08:42:56;8.80;99.90
23207;DHT22;11773;52.570;13.052;2024-01-25T08:45:25;8.80;99.90
23207;DHT22;11773;52.570;13.052;2024-01-25T08:47:55;8.90;99.90
23207;DHT22;11773;52.570;13.052;2024-01-25T08:50:25;9.00;99.90
23207;DHT22;11773;52.570;13.052;2024-01-25T08:52:54;8.80;99.90
23207;DHT22;11773;52.570;13.052;2024-01-25T08:55:24;8.90;99.90
23207;DHT22;11773;52.570;13.052;2024-01-25T08:57:54;8.80;99.90
23207;DHT22;11773;52.570;13.052;2024-01-25T09:00:23;8.90;99.90
23207;DHT22;11773;52.570;13.052;2024-01-25T09:02:53;8.90;99.90
23207;DHT22;11773;52.570;13.052;2024-01-25T09:05:23;8.90;99.90
23207;DHT22;11773;52.570;13.052;2024-01-25T09:10:45;8.90;99.90
23207;DHT22;11773;52.570;13.052;2024-01-25T09:13:15;8.90;99.90
23207;DHT22;11773;52.570;13.052;2024-01-25T09:15:45;9.00;99.90
23207;DHT22;11773;52.570;13.052;2024-01-25T09:18:15;8.90;99.90
23207;DHT22;11773;52.570;13.052;2024-01-25T09:20:45;8.90;99.90
23207;DHT22;11773;52.570;13.052;2024-01-25T09:23:16;8.90;99.90
23207;DHT22;11773;52.570;13.052;2024-01-25T09:25:46;9.00;99.90
23207;DHT22;11773;52.570;13.052;2024-01-25T09:28:16;9.00;99.90
23207;DHT22;11773;52.570;13.052;2024-01-25T09:30:46;9.00;99.90
23207;DHT22;11773;52.570;13.052;2024-01-25T09:33:15;8.90;99.90
23207;DHT22;11773;52.570;13.052;2024-01-25T09:35:46;8.90;99.90
23207;DHT22;11773;52.570;13.052;2024-01-25T09:38:17;8.90;99.90
23207;DHT22;11773;52.570;13.052;2024-01-25T09:40:47;9.00;99.90
23207;DHT22;11773;52.570;13.052;2024-01-25T09:43:19;8.90;99.90
23207;DHT22;11773;52.570;13.052;2024-01-25T09:45:58;8.90;99.90
23207;DHT22;11773;52.570;13.052;2024-01-25T09:48:23;8.90;99.90
23207;DHT22;11773;52.570;13.052;2024-01-25T09:50:56;8.90;99.90
23207;DHT22;11773;52.570;13.052;2024-01-25T09:53:29;9.00;99.90
23207;DHT22;11773;52.570;13.052;2024-01-25T09:56:07;8.90;99.90
23207;DHT22;11773;52.570;13.052;2024-01-25T09:58:42;9.00;99.90
23207;DHT22;11773;52.570;13.052;2024-01-25T10:01:16;8.90;99.90
23207;DHT22;11773;52.570;13.052;2024-01-25T10:03:46;8.90;99.90
23207;DHT22;11773;52.570;13.052;2024-01-25T10:06:17;9.00;99.90
23207;DHT22;11773;52.570;13.052;2024-01-25T10:08:47;9.10;99.90
23207;DHT22;11773;52.570;13.052;2024-01-25T10:11:16;9.20;99.90
23207;DHT22;11773;52.570;13.052;2024-01-25T10:13:48;9.20;99.90
23207;DHT22;11773;52.570;13.052;2024-01-25T10:16:21;9.30;99.90
23207;DHT22;11773;52.570;13.052;2024-01-25T10:18:51;9.20;99.90
23207;DHT22;11773;52.570;13.052;2024-01-25T10:21:22;9.10;99.90
23207;DHT22;11773;52.570;13.052;2024-01-25T10:23:53;9.20;99.90
23207;DHT22;11773;52.570;13.052;2024-01-25T10:26:27;9.30;99.90
23207;DHT22;11773;52.570;13.052;2024-01-25T10:28:56;9.10;99.90
23207;DHT22;11773;52.570;13.052;2024-01-25T10:31:29;9.20;99.90
23207;DHT22;11773;52.570;13.052;2024-01-25T10:34:00;9.30;99.90
23207;DHT22;11773;52.570;13.052;2024-01-25T10:36:30;9.20;99.90
23207;DHT22;11773;52.570;13.052;2024-01-25T10:39:03;9.30;99.90
23207;DHT22;11773;52.570;13.052;2024-01-25T10:41:35;9.60;99.90
23207;DHT22;11773;52.570;13.052;2024-01-25T10:44:05;9.30;99.90
23207;DHT22;11773;52.570;13.052;2024-01-25T10:46:35;9.30;99.90
23207;DHT22;11773;52.570;13.052;2024-01-25T10:49:08;9.30;99.90
23207;DHT22;11773;52.570;13.052;2024-01-25T10:51:40;9.30;99.90
23207;DHT22;11773;52.570;13.052;2024-01-25T10:54:12;9.30;99.90
23207;DHT22;11773;52.570;13.052;2024-01-25T10:56:43;9.30;99.90
23207;DHT22;11773;52.570;13.052;2024-01-25T10:59:16;9.30;99.90
23207;DHT22;11773;52.570;13.052;2024-01-25T11:01:46;9.20;99.90
23207;DHT22;11773;52.570;13.052;2024-01-25T11:04:17;9.30;99.90
23207;DHT22;11773;52.570;13.052;2024-01-25T11:06:48;9.30;99.90
23207;DHT22;11773;52.570;13.052;2024-01-25T11:09:20;9.30;99.90
23207;DHT22;11773;52.570;13.052;2024-01-25T11:11:50;9.20;99.90
23207;DHT22;11773;52.570;13.052;2024-01-25T11:14:25;9.30;99.90
23207;DHT22;11773;52.570;13.052;2024-01-25T11:16:55;9.30;99.90
23207;DHT22;11773;52.570;13.052;2024-01-25T11:19:24;9.40;99.90
23207;DHT22;11773;52.570;13.052;2024-01-25T11:21:55;9.50;99.90
23207;DHT22;11773;52.570;13.052;2024-01-25T11:24:25;9.60;99.90
23207;DHT22;11773;52.570;13.052;2024-01-25T11:26:55;9.60;99.90
23207;DHT22;11773;52.570;13.052;2024-01-25T11:29:25;9.60;99.90
23207;DHT22;11773;52.570;13.052;2024-01-25T11:31:55;9.60;99.90
23207;DHT22;11773;52.570;13.052;2024-01-25T11:34:25;9.60;99.90
23207;DHT22;11773;52.570;13.052;2024-01-25T11:36:54;9.60;99.90
23207;DHT22;11773;52.570;13.052;2024-01-25T11:39:25;9.70;99.90
23207;DHT22;11773;52.570;13.052;2024-01-25T11:41:55;9.70;99.90
23207;DHT22;11773;52.570;13.052;2024-01-25T11:44:25;9.60;99.90
23207;DHT22;11773;52.570;13.052;2024-01-25T11:46:55;9.60;99.90
23207;DHT22;11773;52.570;13.052;2024-01-25T11:49:25;9.70;99.90
23207;DHT22;11773;52.570;13.052;2024-01-25T11:51:55;9.80;99.90
23207;DHT22;11773;52.570;13.052;2024-01-25T11:54:26;9.80;99.90
23207;DHT22;11773;52.570;13.052;2024-01-25T11:56:56;9.80;99.90
23207;DHT22;11773;52.570;13.052;2024-01-25T11:59:26;9.80;99.90
23207;DHT22;11773;52.570;13.052;2024-01-25T12:01:55;9.90;99.90
23207;DHT22;11773;52.570;13.052;2024-01-25T12:04:26;9.80;99.90
23207;DHT22;11773;52.570;13.052;2024-01-25T12:06:56;9.80;99.90
23207;DHT22;11773;52.570;13.052;2024-01-25T12:09:26;9.80;99.90
23207;DHT22;11773;52.570;13.052;2024-01-25T12:11:55;9.80;99.90
23207;DHT22;11773;52.570;13.052;2024-01-25T12:14:25;9.80;99.90
23207;DHT22;11773;52.570;13.052;2024-01-25T12:16:56;9.90;99.90
23207;DHT22;11773;52.570;13.052;2024-01-25T12:19:26;9.90;99.90
23207;DHT22;11773;52.570;13.052;2024-01-25T12:21:57;9.90;99.90
23207;DHT22;11773;52.570;13.052;2024-01-25T12:24:27;9.90;99.90
23207;DHT22;11773;52.570;13.052;2024-01-25T12:26:56;9.80;99.90
23207;DHT22;11773;52.570;13.052;2024-01-25T12:29:28;9.90;99.90
23207;DHT22;11773;52.570;13.052;2024-01-25T12:31:57;9.90;99.90
23207;DHT22;11773;52.570;13.052;2024-01-25T12:34:27;9.90;99.90
23207;DHT22;11773;52.570;13.052;2024-01-25T12:36:57;9.80;99.90
23207;DHT22;11773;52.570;13.052;2024-01-25T12:39:27;9.90;99.90
23207;DHT22;11773;52.570;13.052;2024-01-25T12:41:57;9.90;99.90
23207;DHT22;11773;52.570;13.052;2024-01-25T12:44:27;9.90;99.90
23207;DHT22;11773;52.570;13.052;2024-01-25T12:46:56;10.00;99.90
23207;DHT22;11773;52.570;13.052;2024-01-25T12:49:28;10.00;99.90
23207;DHT22;11773;52.570;13.052;2024-01-25T12:51:58;9.90;99.90
23207;DHT22;11773;52.570;13.052;2024-01-25T12:54:28;10.00;99.90
23207;DHT22;11773;52.570;13.052;2024-01-25T12:56:58;10.00;99.90
23207;DHT22;11773;52.570;13.052;2024-01-25T12:59:28;9.90;99.90
23207;DHT22;11773;52.570;13.052;2024-01-25T13:01:57;9.90;99.90
23207;DHT22;11773;52.570;13.052;2024-01-25T13:04:27;9.90;99.90
23207;DHT22;11773;52.570;13.052;2024-01-25T13:06:57;9.90;99.90
23207;DHT22;11773;52.570;13.052;2024-01-25T13:09:28;9.90;99.90
23207;DHT22;11773;52.570;13.052;2024-01-25T13:12:00;9.80;99.90
23207;DHT22;11773;52.570;13.052;2024-01-25T13:14:30;9.90;99.90
23207;DHT22;11773;52.570;13.052;2024-01-25T13:17:00;9.90;99.90
23207;DHT22;11773;52.570;13.052;2024-01-25T13:19:29;9.80;99.90
23207;DHT22;11773;52.570;13.052;2024-01-25T13:21:59;9.90;99.90
23207;DHT22;11773;52.570;13.052;2024-01-25T13:24:29;9.80;99.90
23207;DHT22;11773;52.570;13.052;2024-01-25T13:26:58;9.80;99.90
23207;DHT22;11773;52.570;13.052;2024-01-25T13:29:28;9.70;99.90
23207;DHT22;11773;52.570;13.052;2024-01-25T13:31:57;9.80;99.90
23207;DHT22;11773;52.570;13.052;2024-01-25T13:34:27;9.80;99.90
23207;DHT22;11773;52.570;13.052;2024-01-25T13:36:57;9.80;99.90
23207;DHT22;11773;52.570;13.052;2024-01-25T13:39:26;9.80;99.90
23207;DHT22;11773;52.570;13.052;2024-01-25T13:41:56;9.70;99.90
23207;DHT22;11773;52.570;13.052;2024-01-25T13:44:26;9.70;99.90
23207;DHT22;11773;52.570;13.052;2024-01-25T13:46:56;9.80;99.90
23207;DHT22;11773;52.570;13.052;2024-01-25T13:49:27;9.70;99.90
23207;DHT22;11773;52.570;13.052;2024-01-25T13:52:00;9.60;99.90
23207;DHT22;11773;52.570;13.052;2024-01-25T13:54:31;9.60;99.90
23207;DHT22;11773;52.570;13.052;2024-01-25T13:57:01;9.60;99.90
23207;DHT22;11773;52.570;13.052;2024-01-25T13:59:30;9.70;99.90
23207;DHT22;11773;52.570;13.052;2024-01-25T14:02:00;9.60;99.90
23207;DHT22;11773;52.570;13.052;2024-01-25T14:04:30;9.60;99.90
23207;DHT22;11773;52.570;13.052;2024-01-25T14:06:59;9.60;99.90
23207;DHT22;11773;52.570;13.052;2024-01-25T14:09:29;9.70;99.90
23207;DHT22;11773;52.570;13.052;2024-01-25T14:11:59;9.70;99.90
23207;DHT22;11773;52.570;13.052;2024-01-25T14:14:29;9.70;99.90
23207;DHT22;11773;52.570;13.052;2024-01-25T14:16:59;9.60;99.90
23207;DHT22;11773;52.570;13.052;2024-01-25T14:19:28;9.50;99.90
23207;DHT22;11773;52.570;13.052;2024-01-25T14:21:58;9.60;99.90
23207;DHT22;11773;52.570;13.052;2024-01-25T14:24:30;9.50;99.90
23207;DHT22;11773;52.570;13.052;2024-01-25T14:27:00;9.40;99.90
23207;DHT22;11773;52.570;13.052;2024-01-25T14:29:30;9.40;99.90
23207;DHT22;11773;52.570;13.052;2024-01-25T14:32:02;9.40;99.90
23207;DHT22;11773;52.570;13.052;2024-01-25T14:34:32;9.40;99.90
23207;DHT22;11773;52.570;13.052;2024-01-25T14:37:02;9.40;99.90
23207;DHT22;11773;52.570;13.052;2024-01-25T14:39:31;9.40;99.90
23207;DHT22;11773;52.570;13.052;2024-01-25T14:42:01;9.30;99.90
23207;DHT22;11773;52.570;13.052;2024-01-25T14:44:31;9.30;99.90
23207;DHT22;11773;52.570;13.052;2024-01-25T14:47:00;9.30;99.90
23207;DHT22;11773;52.570;13.052;2024-01-25T14:49:30;9.40;99.90
23207;DHT22;11773;52.570;13.052;2024-01-25T14:52:00;9.40;99.90
23207;DHT22;11773;52.570;13.052;2024-01-25T14:54:30;9.30;99.90
23207;DHT22;11773;52.570;13.052;2024-01-25T14:57:01;9.30;99.90
23207;DHT22;11773;52.570;13.052;2024-01-25T14:59:30;9.30;99.90
23207;DHT22;11773;52.570;13.052;2024-01-25T15:02:00;9.40;99.90
23207;DHT22;11773;52.570;13.052;2024-01-25T15:04:29;9.40;99.90
23207;DHT22;11773;52.570;13.052;2024-01-25T15:06:59;9.30;99.90
23207;DHT22;11773;52.570;13.052;2024-01-25T15:09:28;9.40;99.90
23207;DHT22;11773;52.570;13.052;2024-01-25T15:11:58;9.20;99.90
23207;DHT22;11773;52.570;13.052;2024-01-25T15:14:28;9.30;99.90
23207;DHT22;11773;52.570;13.052;2024-01-25T15:16:57;9.30;99.90
23207;DHT22;11773;52.570;13.052;2024-01-25T15:19:29;9.30;99.90
23207;DHT22;11773;52.570;13.052;2024-01-25T15:21:59;9.30;99.90
23207;DHT22;11773;52.570;13.052;2024-01-25T15:24:28;9.40;99.90
23207;DHT22;11773;52.570;13.052;2024-01-25T15:27:00;9.30;99.90
23207;DHT22;11773;52.570;13.052;2024-01-25T15:29:29;9.30;99.90
23207;DHT22;11773;52.570;13.052;2024-01-25T15:31:59;9.30;99.90
23207;DHT22;11773;52.570;13.052;2024-01-25T15:34:28;9.30;99.90
23207;DHT22;11773;52.570;13.052;2024-01-25T15:36:58;9.30;99.90
23207;DHT22;11773;52.570;13.052;2024-01-25T15:39:28;9.20;99.90
23207;DHT22;11773;52.570;13.052;2024-01-25T15:41:58;9.20;99.90
23207;DHT22;11773;52.570;13.052;2024-01-25T15:44:27;9.20;99.90
23207;DHT22;11773;52.570;13.052;2024-01-25T15:46:57;9.20;99.90
23207;DHT22;11773;52.570;13.052;2024-01-25T15:49:26;9.10;99.90
23207;DHT22;11773;52.570;13.052;2024-01-25T15:51:56;9.10;99.90